createdAt,value
2018-03-22T00:01:59.180Z,88.30
2018-03-22T00:04:26.637Z,88.40
2018-03-22T00:06:54.090Z,88.40
2018-03-22T00:09:21.565Z,88.30
2018-03-22T00:11:49.104Z,88.90
2018-03-22T00:14:16.556Z,89.00
2018-03-22T00:16:44.011Z,87.50
2018-03-22T00:19:11.446Z,88.00
2018-03-22T00:21:38.921Z,88.00
2018-03-22T00:24:06.404Z,87.60
2018-03-22T00:26:33.889Z,87.60
2018-03-22T00:29:01.331Z,87.60
2018-03-22T00:31:28.787Z,87.60
2018-03-22T00:33:56.261Z,87.60
2018-03-22T00:36:23.710Z,87.60
2018-03-22T00:38:51.177Z,87.60
2018-03-22T00:41:18.616Z,87.70
2018-03-22T00:43:46.074Z,87.60
2018-03-22T00:46:13.527Z,87.60
2018-03-22T00:48:40.980Z,87.60
2018-03-22T00:51:08.457Z,87.70
2018-03-22T00:53:35.933Z,87.70
2018-03-22T00:56:03.401Z,87.40
2018-03-22T00:58:30.845Z,86.90
2018-03-22T01:00:59.089Z,86.90
2018-03-22T01:03:26.565Z,86.90
2018-03-22T01:05:54.030Z,87.50
2018-03-22T01:08:22.262Z,88.50
2018-03-22T01:10:49.738Z,88.30
2018-03-22T01:13:17.192Z,88.40
2018-03-22T01:15:44.634Z,87.70
2018-03-22T01:18:12.115Z,87.50
2018-03-22T01:20:39.590Z,87.70
2018-03-22T01:23:07.814Z,87.80
2018-03-22T01:25:35.296Z,87.70
2018-03-22T01:28:02.765Z,87.80
2018-03-22T01:30:37.217Z,87.80
2018-03-22T01:33:04.668Z,87.90
2018-03-22T01:35:32.142Z,88.50
2018-03-22T01:37:59.580Z,87.80
2018-03-22T01:40:27.161Z,87.80
2018-03-22T01:42:54.627Z,87.80
2018-03-22T01:45:22.088Z,87.80
2018-03-22T01:47:49.572Z,88.00
2018-03-22T01:50:17.010Z,88.50
2018-03-22T01:52:56.149Z,88.40
2018-03-22T01:55:23.589Z,88.70
2018-03-22T01:57:51.059Z,88.80
2018-03-22T02:00:18.520Z,88.90
2018-03-22T02:02:46.002Z,88.90
2018-03-22T02:05:13.449Z,88.40
2018-03-22T02:07:40.895Z,89.20
2018-03-22T02:10:08.399Z,88.40
2018-03-22T02:12:36.599Z,88.40
2018-03-22T02:15:04.070Z,88.30
2018-03-22T02:17:31.521Z,88.00
2018-03-22T02:19:59.009Z,88.20
2018-03-22T02:22:26.453Z,88.60
2018-03-22T02:24:53.905Z,88.90
2018-03-22T02:27:21.460Z,88.70
2018-03-22T02:29:48.927Z,88.80
2018-03-22T02:32:16.410Z,88.70
2018-03-22T02:34:44.648Z,88.90
2018-03-22T02:37:15.081Z,89.70
2018-03-22T02:39:42.534Z,89.00
2018-03-22T02:42:09.986Z,88.80
2018-03-22T02:44:37.462Z,89.00
2018-03-22T02:47:04.934Z,88.80
2018-03-22T02:49:33.179Z,89.00
2018-03-22T02:52:00.625Z,88.90
2018-03-22T02:54:28.158Z,89.20
2018-03-22T02:56:55.623Z,89.20
2018-03-22T02:59:23.094Z,89.40
2018-03-22T03:01:50.553Z,89.30
2018-03-22T03:04:19.003Z,89.00
2018-03-22T03:06:46.445Z,88.90
2018-03-22T03:09:13.902Z,89.30
2018-03-22T03:11:41.370Z,89.70
2018-03-22T03:14:08.852Z,89.50
2018-03-22T03:16:36.322Z,89.50
2018-03-22T03:19:03.838Z,89.00
2018-03-22T03:21:31.326Z,89.30
2018-03-22T03:23:58.805Z,89.40
2018-03-22T03:26:26.314Z,89.10
2018-03-22T03:28:53.829Z,89.00
2018-03-22T03:31:22.167Z,89.20
2018-03-22T03:33:49.677Z,88.60
2018-03-22T03:36:17.169Z,88.50
2018-03-22T03:38:44.687Z,88.40
2018-03-22T03:41:12.961Z,88.20
2018-03-22T03:43:40.481Z,88.10
2018-03-22T03:46:07.966Z,87.80
2018-03-22T03:48:35.446Z,87.70
2018-03-22T03:51:02.913Z,87.50
2018-03-22T03:53:31.158Z,87.80
2018-03-22T03:55:58.615Z,87.80
2018-03-22T03:58:26.088Z,88.10
2018-03-22T04:00:54.318Z,88.10
2018-03-22T04:03:21.786Z,88.00
2018-03-22T04:05:49.237Z,87.50
2018-03-22T04:08:17.054Z,87.40
2018-03-22T04:10:45.308Z,87.50
2018-03-22T04:13:12.807Z,87.40
2018-03-22T04:15:40.268Z,87.60
2018-03-22T04:18:07.751Z,87.60
2018-03-22T04:20:35.201Z,87.00
2018-03-22T04:23:02.651Z,87.60
2018-03-22T04:25:30.193Z,87.00
2018-03-22T04:27:57.633Z,86.00
2018-03-22T04:30:25.092Z,86.30
2018-03-22T04:32:52.556Z,86.10
2018-03-22T04:35:20.036Z,86.50
2018-03-22T04:37:47.497Z,86.10
2018-03-22T04:40:14.968Z,87.10
2018-03-22T04:42:42.947Z,87.10
2018-03-22T04:45:10.422Z,87.00
2018-03-22T04:47:38.648Z,86.60
2018-03-22T04:50:06.096Z,87.20
2018-03-22T04:52:33.542Z,87.20
2018-03-22T04:55:01.000Z,87.60
2018-03-22T04:57:28.466Z,87.90
2018-03-22T04:59:55.935Z,88.30
2018-03-22T05:02:23.382Z,89.10
2018-03-22T05:04:50.830Z,89.20
2018-03-22T05:07:18.309Z,89.60
2018-03-22T05:09:45.750Z,89.10
2018-03-22T05:12:13.222Z,89.60
2018-03-22T05:14:40.677Z,89.90
2018-03-22T05:17:08.130Z,89.10
2018-03-22T05:19:35.603Z,89.60
2018-03-22T05:22:03.053Z,89.00
2018-03-22T05:24:30.544Z,88.90
2018-03-22T05:26:58.777Z,89.70
2018-03-22T05:29:26.253Z,89.60
2018-03-22T05:31:53.721Z,89.50
2018-03-22T05:34:21.186Z,89.70
2018-03-22T05:36:48.646Z,89.40
2018-03-22T05:39:16.859Z,88.70
2018-03-22T05:41:44.313Z,88.60
2018-03-22T05:44:11.874Z,89.50
2018-03-22T05:46:39.341Z,89.20
2018-03-22T05:49:06.804Z,88.80
2018-03-22T05:51:34.285Z,89.00
2018-03-22T05:54:03.356Z,87.10
2018-03-22T05:56:30.826Z,87.10
2018-03-22T05:58:58.293Z,87.00
2018-03-22T06:01:25.771Z,87.70
2018-03-22T06:03:54.085Z,86.90
2018-03-22T06:06:21.545Z,87.30
2018-03-22T06:08:50.118Z,87.40
2018-03-22T06:11:18.345Z,87.10
2018-03-22T06:13:45.792Z,87.10
2018-03-22T06:16:13.314Z,87.10
2018-03-22T06:18:40.750Z,87.90
2018-03-22T06:21:08.237Z,88.70
2018-03-22T06:23:35.785Z,88.40
2018-03-22T06:26:03.225Z,89.10
2018-03-22T06:28:30.736Z,89.70
2018-03-22T06:30:58.208Z,90.80
2018-03-22T06:33:25.662Z,91.40
2018-03-22T06:35:53.137Z,91.80
2018-03-22T06:38:21.350Z,92.90
2018-03-22T06:40:48.821Z,92.90
2018-03-22T06:43:16.274Z,93.60
2018-03-22T06:45:43.741Z,94.30
2018-03-22T06:48:11.273Z,94.70
2018-03-22T06:50:38.707Z,95.30
2018-03-22T06:53:06.951Z,95.50
2018-03-22T06:55:34.422Z,96.00
2018-03-22T06:58:01.863Z,96.10
2018-03-22T07:00:29.365Z,96.50
2018-03-22T07:02:56.917Z,97.00
2018-03-22T07:05:24.434Z,97.00
2018-03-22T07:07:51.959Z,96.80
2018-03-22T07:10:19.450Z,96.80
2018-03-22T07:12:46.950Z,96.90
2018-03-22T07:15:14.430Z,97.10
2018-03-22T07:17:41.946Z,97.10
2018-03-22T07:20:10.194Z,96.70
2018-03-22T07:22:37.718Z,96.70
2018-03-22T07:25:05.221Z,96.80
2018-03-22T07:27:32.735Z,97.00
2018-03-22T07:30:00.200Z,97.00
2018-03-22T07:32:27.719Z,97.00
2018-03-22T07:34:55.948Z,97.20
2018-03-22T07:37:23.503Z,97.20
2018-03-22T07:39:51.023Z,97.00
2018-03-22T07:42:18.506Z,97.10
2018-03-22T07:44:48.937Z,97.20
2018-03-22T07:47:16.395Z,97.10
2018-03-22T07:49:43.863Z,97.80
2018-03-22T07:52:11.316Z,97.80
2018-03-22T07:54:38.783Z,97.40
2018-03-22T07:57:06.255Z,97.50
2018-03-22T07:59:33.689Z,97.50
2018-03-22T08:02:01.139Z,97.90
2018-03-22T08:04:28.615Z,97.40
2018-03-22T08:06:56.092Z,97.80
2018-03-22T08:09:24.305Z,97.70
2018-03-22T08:11:51.806Z,97.60
2018-03-22T08:14:19.261Z,97.80
2018-03-22T08:16:46.701Z,97.60
2018-03-22T08:19:14.194Z,97.80
2018-03-22T08:21:42.405Z,97.80
2018-03-22T08:24:09.877Z,97.80
2018-03-22T08:26:37.319Z,98.10
2018-03-22T08:29:04.842Z,97.70
2018-03-22T08:31:32.270Z,97.70
2018-03-22T08:33:59.710Z,98.00
2018-03-22T08:36:27.147Z,98.00
2018-03-22T08:38:54.629Z,98.30
2018-03-22T08:41:22.166Z,98.10
2018-03-22T08:43:50.331Z,97.70
2018-03-22T08:46:17.783Z,97.70
2018-03-22T08:48:45.241Z,97.80
2018-03-22T08:51:12.716Z,97.70
2018-03-22T08:53:40.170Z,97.20
2018-03-22T08:56:07.620Z,97.50
2018-03-22T08:58:35.104Z,97.60
2018-03-22T09:01:02.552Z,97.60
2018-03-22T09:06:20.769Z,97.80
2018-03-22T09:08:48.224Z,97.30
2018-03-22T09:11:15.706Z,97.50
2018-03-22T09:13:43.147Z,97.50
2018-03-22T09:16:10.599Z,97.60
2018-03-22T09:18:38.044Z,97.80
2018-03-22T09:21:06.290Z,97.50
2018-03-22T09:23:33.738Z,97.50
2018-03-22T09:26:01.217Z,97.80
2018-03-22T09:28:29.453Z,97.90
2018-03-22T09:30:56.900Z,97.60
2018-03-22T09:33:24.365Z,97.70
2018-03-22T09:35:51.815Z,97.60
2018-03-22T09:38:19.310Z,97.40
2018-03-22T09:40:46.775Z,97.50
2018-03-22T09:43:14.242Z,97.30
2018-03-22T09:45:42.458Z,97.40
2018-03-22T09:48:09.907Z,97.40
2018-03-22T09:50:37.361Z,97.40
2018-03-22T09:53:04.815Z,97.20
2018-03-22T09:55:32.301Z,97.10
2018-03-22T09:57:59.765Z,96.90
2018-03-22T10:00:27.221Z,97.00
2018-03-22T10:02:54.721Z,97.10
2018-03-22T10:05:22.176Z,97.20
2018-03-22T10:07:50.423Z,97.00
2018-03-22T10:10:17.867Z,97.00
2018-03-22T10:12:45.361Z,97.10
2018-03-22T10:15:13.595Z,97.60
2018-03-22T10:17:41.044Z,97.60
2018-03-22T10:20:08.569Z,98.10
2018-03-22T10:22:36.526Z,98.00
2018-03-22T10:25:03.978Z,98.20
2018-03-22T10:27:31.451Z,97.90
2018-03-22T10:29:58.904Z,97.80
2018-03-22T10:32:26.376Z,98.60
2018-03-22T10:34:53.894Z,98.70
2018-03-22T10:37:22.120Z,98.70
2018-03-22T10:39:49.560Z,98.60
2018-03-22T10:42:17.028Z,98.80
2018-03-22T10:44:44.509Z,98.70
2018-03-22T10:47:11.970Z,98.70
2018-03-22T10:49:39.420Z,99.20
2018-03-22T10:52:06.891Z,99.10
2018-03-22T10:54:34.326Z,99.30
2018-03-22T10:57:01.806Z,99.50
2018-03-22T10:59:29.272Z,99.60
2018-03-22T11:02:00.732Z,99.80
2018-03-22T11:04:28.965Z,99.70
2018-03-22T11:06:56.418Z,99.70
2018-03-22T11:09:23.908Z,99.90
2018-03-22T11:11:51.363Z,99.90
2018-03-22T11:14:18.826Z,99.90
2018-03-22T11:16:47.039Z,99.90
2018-03-22T11:19:14.511Z,99.90
2018-03-22T11:21:41.993Z,99.90
2018-03-22T11:24:09.449Z,99.90
2018-03-22T11:26:36.900Z,99.90
2018-03-22T11:29:04.367Z,99.90
2018-03-22T11:31:32.071Z,99.90
2018-03-22T11:33:59.620Z,99.90
2018-03-22T11:36:27.129Z,99.90
2018-03-22T11:38:54.684Z,99.90
2018-03-22T11:41:22.281Z,99.90
2018-03-22T11:43:50.587Z,99.90
2018-03-22T11:46:18.125Z,99.90
2018-03-22T11:48:45.663Z,99.90
2018-03-22T11:51:13.976Z,99.90
2018-03-22T11:53:41.536Z,99.90
2018-03-22T11:56:09.060Z,99.90
2018-03-22T11:58:36.579Z,99.90
2018-03-22T12:01:04.099Z,99.90
2018-03-22T12:03:31.666Z,99.90
2018-03-22T12:05:59.226Z,99.90
2018-03-22T12:08:26.762Z,99.90
2018-03-22T12:10:54.338Z,99.90
2018-03-22T12:13:21.895Z,99.90
2018-03-22T12:15:49.443Z,99.90
2018-03-22T12:18:16.949Z,99.90
2018-03-22T12:20:44.477Z,99.90
2018-03-22T12:23:12.017Z,99.90
2018-03-22T12:25:39.598Z,99.90
2018-03-22T12:28:07.124Z,99.90
2018-03-22T12:30:35.451Z,99.90
2018-03-22T12:33:03.026Z,99.90
2018-03-22T12:35:30.560Z,99.90
2018-03-22T12:37:58.115Z,99.90
2018-03-22T12:40:25.649Z,99.90
2018-03-22T12:42:53.190Z,99.90
2018-03-22T12:45:20.721Z,99.90
2018-03-22T12:47:48.277Z,99.90
2018-03-22T12:50:15.842Z,99.90
2018-03-22T12:52:43.322Z,99.90
2018-03-22T12:55:10.774Z,99.90
2018-03-22T12:57:38.251Z,99.90
2018-03-22T13:00:06.482Z,99.90
2018-03-22T13:02:33.917Z,99.90
2018-03-22T13:05:01.405Z,99.90
2018-03-22T13:07:28.872Z,99.90
2018-03-22T13:09:56.336Z,99.90
2018-03-22T13:12:23.821Z,99.90
2018-03-22T13:14:52.038Z,99.90
2018-03-22T13:17:20.020Z,99.90
2018-03-22T13:19:47.493Z,99.90
2018-03-22T13:22:14.965Z,99.90
2018-03-22T13:24:43.226Z,99.90
2018-03-22T13:27:10.696Z,99.90
2018-03-22T13:29:38.962Z,99.90
2018-03-22T13:32:06.439Z,99.90
2018-03-22T13:34:34.687Z,99.90
2018-03-22T13:37:02.149Z,99.90
2018-03-22T13:39:29.641Z,99.90
2018-03-22T13:41:57.105Z,99.90
2018-03-22T13:44:24.667Z,99.90
2018-03-22T13:46:52.135Z,99.90
2018-03-22T13:49:19.625Z,99.90
2018-03-22T13:51:47.873Z,99.90
2018-03-22T13:54:15.348Z,99.90
2018-03-22T13:56:42.815Z,99.90
2018-03-22T13:59:10.296Z,99.90
2018-03-22T14:01:38.510Z,99.90
2018-03-22T14:04:05.996Z,99.90
2018-03-22T14:06:33.479Z,99.90
2018-03-22T14:09:00.969Z,99.90
2018-03-22T14:11:28.414Z,99.90
2018-03-22T14:13:55.895Z,99.90
2018-03-22T14:16:23.365Z,99.90
2018-03-22T14:18:50.828Z,99.90
2018-03-22T14:21:18.322Z,99.90
2018-03-22T14:23:46.564Z,99.90
2018-03-22T14:26:14.006Z,99.90
2018-03-22T14:28:41.468Z,99.90
2018-03-22T14:31:08.944Z,99.90
2018-03-22T14:33:36.384Z,99.90
2018-03-22T14:36:03.871Z,99.90
2018-03-22T14:38:31.346Z,99.90
2018-03-22T14:40:59.570Z,99.90
2018-03-22T14:43:27.023Z,99.90
2018-03-22T14:45:54.493Z,99.90
2018-03-22T14:48:21.956Z,99.90
2018-03-22T14:50:49.448Z,99.90
2018-03-22T14:53:17.703Z,99.90
2018-03-22T14:55:45.161Z,99.90
2018-03-22T14:58:12.645Z,99.90
2018-03-22T15:00:40.137Z,99.90
2018-03-22T15:03:07.584Z,99.90
2018-03-22T15:05:35.050Z,99.90
2018-03-22T15:08:02.534Z,99.90
2018-03-22T15:10:30.083Z,99.90
2018-03-22T15:12:57.468Z,99.90
2018-03-22T15:15:25.696Z,99.90
2018-03-22T15:17:53.190Z,99.90
2018-03-22T15:20:20.644Z,99.90
2018-03-22T15:22:48.102Z,99.90
2018-03-22T15:25:15.581Z,99.90
2018-03-22T15:27:44.701Z,99.90
2018-03-22T15:30:12.210Z,99.90
2018-03-22T15:32:39.718Z,99.90
2018-03-22T15:35:07.213Z,99.90
2018-03-22T15:37:34.691Z,99.90
2018-03-22T15:40:02.951Z,99.90
2018-03-22T15:42:30.415Z,99.90
2018-03-22T15:44:57.961Z,99.90
2018-03-22T15:47:25.451Z,99.90
2018-03-22T15:49:53.736Z,99.90
2018-03-22T15:52:21.229Z,99.90
2018-03-22T15:54:48.755Z,99.90
2018-03-22T15:57:17.194Z,99.90
2018-03-22T15:59:44.699Z,99.90
2018-03-22T16:02:12.267Z,99.90
2018-03-22T16:04:39.746Z,99.90
2018-03-22T16:07:07.242Z,99.90
2018-03-22T16:09:34.916Z,99.90
2018-03-22T16:12:02.529Z,99.90
2018-03-22T16:14:30.057Z,99.90
2018-03-22T16:16:57.643Z,99.90
2018-03-22T16:19:25.225Z,99.90
2018-03-22T16:21:53.785Z,99.90
2018-03-22T16:24:21.362Z,99.90
2018-03-22T16:26:48.868Z,99.90
2018-03-22T16:29:18.692Z,99.90
2018-03-22T16:31:46.176Z,99.90
2018-03-22T16:34:13.690Z,99.90
2018-03-22T16:36:41.962Z,99.90
2018-03-22T16:39:09.454Z,99.90
2018-03-22T16:41:36.987Z,99.90
2018-03-22T16:44:04.504Z,99.90
2018-03-22T16:46:32.005Z,99.90
2018-03-22T16:48:59.666Z,99.90
2018-03-22T16:51:27.785Z,99.90
2018-03-22T16:53:56.246Z,99.90
2018-03-22T16:56:23.765Z,99.90
2018-03-22T16:58:52.034Z,99.90
2018-03-22T17:01:20.163Z,99.90
2018-03-22T17:03:48.822Z,99.90
2018-03-22T17:06:16.323Z,99.90
2018-03-22T17:08:43.823Z,99.90
2018-03-22T17:11:11.723Z,99.90
2018-03-22T17:13:39.247Z,99.90
2018-03-22T17:16:07.546Z,99.90
2018-03-22T17:18:35.068Z,99.90
2018-03-22T17:21:03.345Z,99.90
2018-03-22T17:23:31.617Z,99.90
2018-03-22T17:25:59.371Z,99.90
2018-03-22T17:28:28.430Z,99.90
2018-03-22T17:30:55.941Z,99.90
2018-03-22T17:33:23.490Z,99.90
2018-03-22T17:35:51.740Z,99.90
2018-03-22T17:38:20.641Z,99.90
2018-03-22T17:40:48.245Z,99.90
2018-03-22T17:43:16.020Z,99.90
2018-03-22T17:45:43.875Z,99.90
2018-03-22T17:48:11.354Z,99.90
2018-03-22T17:50:38.871Z,99.90
2018-03-22T17:53:06.950Z,99.90
2018-03-22T17:55:35.092Z,99.90
2018-03-22T17:58:06.064Z,99.90
2018-03-22T18:00:33.563Z,99.90
2018-03-22T18:03:01.073Z,99.90
2018-03-22T18:05:28.583Z,99.90
2018-03-22T18:07:56.109Z,99.90
2018-03-22T18:10:23.638Z,99.90
2018-03-22T18:12:51.918Z,99.90
2018-03-22T18:15:19.496Z,99.90
2018-03-22T18:17:47.039Z,99.90
2018-03-22T18:20:14.547Z,99.90
2018-03-22T18:22:42.178Z,99.90
2018-03-22T18:25:09.705Z,99.90
2018-03-22T18:27:38.920Z,99.90
2018-03-22T18:30:07.091Z,99.90
2018-03-22T18:32:34.624Z,99.90
2018-03-22T18:35:05.653Z,99.90
2018-03-22T18:37:33.706Z,99.90
2018-03-22T18:40:02.065Z,99.90
2018-03-22T18:42:29.626Z,99.90
2018-03-22T18:44:58.095Z,99.90
2018-03-22T18:47:26.935Z,99.90
2018-03-22T18:49:56.090Z,99.90
2018-03-22T18:52:24.773Z,99.90
2018-03-22T18:54:52.283Z,99.90
2018-03-22T18:57:22.241Z,99.90
2018-03-22T18:59:51.154Z,99.90
2018-03-22T19:02:18.715Z,99.90
2018-03-22T19:04:46.655Z,99.90
2018-03-22T19:07:14.273Z,99.90
2018-03-22T19:09:42.558Z,99.90
2018-03-22T19:12:10.865Z,99.90
2018-03-22T19:14:38.372Z,99.90
2018-03-22T19:17:05.884Z,99.90
2018-03-22T19:19:35.015Z,99.90
2018-03-22T19:22:06.346Z,99.90
2018-03-22T19:24:34.753Z,99.90
2018-03-22T19:27:03.011Z,99.90
2018-03-22T19:29:30.551Z,99.90
2018-03-22T19:32:00.152Z,99.90
2018-03-22T19:34:28.579Z,99.90
2018-03-22T19:36:56.864Z,99.90
2018-03-22T19:39:25.967Z,99.90
2018-03-22T19:41:54.594Z,99.90
2018-03-22T19:44:23.829Z,99.90
2018-03-22T19:46:52.164Z,99.90
2018-03-22T19:49:21.052Z,99.90
2018-03-22T19:51:49.002Z,99.90
2018-03-22T19:54:16.519Z,99.90
2018-03-22T19:56:46.815Z,99.90
2018-03-22T19:59:16.076Z,99.90
2018-03-22T20:01:44.577Z,99.90
2018-03-22T20:04:12.142Z,99.90
2018-03-22T20:06:40.553Z,99.90
2018-03-22T20:09:09.874Z,99.90
2018-03-22T20:11:39.247Z,99.90
2018-03-22T20:14:06.789Z,99.90
2018-03-22T20:16:35.240Z,99.90
2018-03-22T20:19:04.918Z,99.90
2018-03-22T20:21:34.233Z,99.90
2018-03-22T20:24:03.808Z,99.90
2018-03-22T20:26:32.312Z,99.90
2018-03-22T20:29:01.545Z,99.90
2018-03-22T20:31:31.158Z,99.90
2018-03-22T20:33:59.609Z,99.90
2018-03-22T20:36:28.320Z,99.90
2018-03-22T20:38:56.786Z,99.90
2018-03-22T20:41:24.408Z,99.90
2018-03-22T20:43:52.899Z,99.90
2018-03-22T20:46:21.392Z,99.90
2018-03-22T20:48:52.166Z,99.90
2018-03-22T20:51:21.219Z,99.90
2018-03-22T20:53:48.830Z,99.90
2018-03-22T20:56:16.404Z,99.90
2018-03-22T20:58:44.548Z,99.90
2018-03-22T21:01:13.486Z,99.90
2018-03-22T21:03:42.327Z,99.90
2018-03-22T21:06:13.034Z,99.90
2018-03-22T21:08:42.815Z,99.90
2018-03-22T21:11:11.049Z,99.90
2018-03-22T21:13:38.571Z,99.90
2018-03-22T21:16:06.827Z,99.90
2018-03-22T21:18:34.381Z,99.90
2018-03-22T21:21:02.693Z,99.90
2018-03-22T21:23:32.209Z,99.90
2018-03-22T21:25:59.780Z,99.90
2018-03-22T21:28:27.280Z,99.90
2018-03-22T21:30:55.868Z,99.90
2018-03-22T21:33:25.413Z,99.90
2018-03-22T21:35:55.047Z,99.90
2018-03-22T21:38:22.894Z,99.90
2018-03-22T21:40:50.719Z,99.90
2018-03-22T21:43:21.156Z,99.90
2018-03-22T21:45:49.437Z,99.90
2018-03-22T21:48:17.146Z,99.90
2018-03-22T21:50:50.415Z,99.90
2018-03-22T21:53:17.978Z,99.90
2018-03-22T21:55:47.365Z,99.90
2018-03-22T21:58:14.867Z,99.90
2018-03-22T22:00:43.442Z,99.90
2018-03-22T22:03:10.919Z,99.90
2018-03-22T22:05:40.850Z,99.90
2018-03-22T22:08:09.718Z,99.90
2018-03-22T22:10:37.911Z,99.90
2018-03-22T22:13:06.574Z,99.90
2018-03-22T22:15:34.056Z,99.90
2018-03-22T22:18:02.335Z,99.90
2018-03-22T22:20:30.589Z,99.90
2018-03-22T22:22:58.107Z,99.90
2018-03-22T22:25:25.588Z,99.90
2018-03-22T22:27:54.599Z,99.90
2018-03-22T22:30:22.083Z,99.90
2018-03-22T22:32:50.327Z,99.90
2018-03-22T22:35:17.838Z,99.90
2018-03-22T22:37:45.343Z,99.90
2018-03-22T22:40:12.957Z,99.90
2018-03-22T22:42:40.461Z,99.90
2018-03-22T22:45:07.972Z,99.90
2018-03-22T22:47:35.494Z,99.90
2018-03-22T22:50:03.019Z,99.90
2018-03-22T22:52:30.481Z,99.90
2018-03-22T22:54:57.969Z,99.90
2018-03-22T22:57:26.201Z,99.90
2018-03-22T22:59:53.734Z,99.90
2018-03-22T23:02:21.216Z,99.90
2018-03-22T23:04:48.668Z,99.90
2018-03-22T23:07:16.134Z,99.90
2018-03-22T23:09:43.605Z,99.90
2018-03-22T23:12:11.077Z,99.90
2018-03-22T23:14:38.545Z,99.90
2018-03-22T23:17:06.782Z,99.90
2018-03-22T23:19:34.238Z,99.90
2018-03-22T23:22:02.488Z,99.90
2018-03-22T23:24:29.974Z,99.90
2018-03-22T23:26:57.419Z,99.90
2018-03-22T23:29:24.881Z,99.90
2018-03-22T23:31:52.366Z,99.90
2018-03-22T23:34:19.921Z,99.90
2018-03-22T23:36:47.369Z,99.90
2018-03-22T23:39:14.845Z,99.90
2018-03-22T23:41:43.070Z,99.90
2018-03-22T23:44:10.521Z,99.90
2018-03-22T23:46:38.008Z,99.90
2018-03-22T23:49:05.499Z,99.90
2018-03-22T23:51:33.728Z,99.90
2018-03-22T23:54:01.190Z,99.90
2018-03-22T23:56:28.732Z,99.90
2018-03-22T23:58:56.901Z,99.90
